Time;durP1;ratioP1;P1;durP2;ratioP2;P2;SDS_P1;SDS_P2;PMS_P1;PMS_P2;Temp;Humidity;BMP_temperature;BMP_pressure;BME280_temperature;BME280_humidity;BME280_pressure;Samples;Min_cycle;Max_cycle;Signal;HPM_P1;HPM_P2
2021/05/17 00:02:16;;;;;;;0.70;0.70;;;11.00;97.70;;;;;;5049452;28;20654;-82
2021/05/17 00:04:43;;;;;;;1.48;0.90;;;10.90;97.40;;;;;;5048927;28;20644;-81
2021/05/17 00:07:12;;;;;;;0.70;0.70;;;11.00;97.80;;;;;;5052004;28;20246;-82
2021/05/17 00:09:39;;;;;;;1.00;0.87;;;11.00;97.20;;;;;;5052299;28;20633;-82
2021/05/17 00:12:08;;;;;;;0.70;0.70;;;10.90;97.20;;;;;;5052712;28;20622;-82
2021/05/17 00:14:36;;;;;;;2.20;0.70;;;10.90;97.70;;;;;;5052101;28;20200;-82
2021/05/17 00:17:04;;;;;;;1.77;0.77;;;10.80;97.20;;;;;;5052584;28;20232;-82
2021/05/17 00:19:31;;;;;;;1.40;0.77;;;10.50;97.10;;;;;;5047524;28;20227;-82
2021/05/17 00:21:58;;;;;;;0.90;0.90;;;10.70;97.60;;;;;;5051197;28;20227;-82
2021/05/17 00:24:26;;;;;;;0.70;0.70;;;10.70;97.80;;;;;;5052594;28;20629;-82
2021/05/17 00:26:53;;;;;;;1.55;0.63;;;10.80;97.70;;;;;;5052354;28;20195;-82
2021/05/17 00:29:20;;;;;;;1.13;1.00;;;10.60;97.50;;;;;;5052306;28;20681;-82
2021/05/17 00:31:46;;;;;;;0.77;0.77;;;10.60;97.80;;;;;;5052399;28;20258;-82
2021/05/17 00:34:13;;;;;;;1.58;0.60;;;10.70;97.70;;;;;;5051975;28;20292;-82
2021/05/17 00:36:39;;;;;;;1.13;1.05;;;10.60;97.70;;;;;;5052704;28;20220;-82
2021/05/17 00:39:09;;;;;;;1.38;0.80;;;10.70;98.40;;;;;;5051416;28;20200;-83
2021/05/17 00:41:38;;;;;;;0.70;0.70;;;10.90;98.30;;;;;;5053001;28;20622;-82
2021/05/17 00:44:05;;;;;;;1.42;0.85;;;10.90;97.80;;;;;;5052021;28;20240;-83
2021/05/17 00:46:32;;;;;;;0.95;0.70;;;11.00;97.60;;;;;;5052310;28;20220;-83
2021/05/17 00:48:59;;;;;;;0.90;0.80;;;10.90;97.00;;;;;;5051679;28;20642;-82
2021/05/17 00:51:26;;;;;;;1.85;0.93;;;11.00;97.50;;;;;;5052643;28;20254;-83
2021/05/17 00:53:53;;;;;;;0.90;0.90;;;11.00;97.00;;;;;;5051957;28;20255;-82
2021/05/17 00:56:20;;;;;;;0.93;0.80;;;11.10;97.00;;;;;;5051249;28;20740;-82
2021/05/17 00:58:48;;;;;;;3.80;1.17;;;11.10;96.50;;;;;;5051232;28;20212;-82
2021/05/17 01:01:16;;;;;;;1.87;0.83;;;11.10;96.40;;;;;;5052029;28;20196;-83
2021/05/17 01:03:44;;;;;;;1.58;0.70;;;11.00;95.90;;;;;;5051399;28;20621;-83
2021/05/17 01:06:12;;;;;;;1.20;0.67;;;11.00;96.30;;;;;;5051829;28;20195;-82
2021/05/17 01:08:51;;;;;;;0.60;0.60;;;11.00;96.40;;;;;;5048931;28;20646;-82
2021/05/17 01:11:20;;;;;;;1.35;0.57;;;11.00;96.40;;;;;;5047999;28;20813;-82
2021/05/17 01:13:52;;;;;;;1.10;0.73;;;11.10;96.40;;;;;;5044414;28;20295;-83
2021/05/17 01:16:22;;;;;;;0.77;0.77;;;11.20;96.30;;;;;;5051646;28;20223;-83
2021/05/17 01:18:55;;;;;;;0.70;0.70;;;11.20;96.20;;;;;;5050035;28;20226;-82
2021/05/17 01:21:26;;;;;;;0.85;0.85;;;10.90;96.00;;;;;;5051542;28;20227;-83
2021/05/17 01:23:57;;;;;;;1.80;0.73;;;10.90;96.80;;;;;;5051396;28;20203;-83
2021/05/17 01:26:27;;;;;;;0.82;0.70;;;10.90;96.40;;;;;;5051478;28;20200;-83
2021/05/17 01:28:57;;;;;;;1.23;0.63;;;11.00;96.40;;;;;;5050330;28;20200;-83
2021/05/17 01:31:25;;;;;;;3.55;0.95;;;10.80;96.50;;;;;;5027097;28;20209;-83
2021/05/17 01:33:56;;;;;;;1.45;0.82;;;10.90;96.30;;;;;;5043703;28;20559;-83
2021/05/17 01:36:26;;;;;;;0.85;0.65;;;10.80;96.50;;;;;;5051707;28;20826;-83
2021/05/17 01:38:56;;;;;;;0.75;0.75;;;10.70;97.00;;;;;;5049708;28;20196;-83
2021/05/17 01:41:25;;;;;;;1.58;0.82;;;11.00;97.30;;;;;;5051308;28;20195;-83
2021/05/17 01:43:55;;;;;;;0.75;0.75;;;11.10;96.50;;;;;;5050720;28;20204;-83
2021/05/17 01:46:25;;;;;;;0.75;0.70;;;11.10;96.40;;;;;;5051292;28;20251;-83
2021/05/17 01:48:55;;;;;;;0.85;0.80;;;11.00;95.90;;;;;;5050247;28;20196;-83
2021/05/17 01:51:24;;;;;;;0.70;0.60;;;11.00;96.20;;;;;;5050579;28;20206;-83
2021/05/17 01:53:54;;;;;;;0.75;0.75;;;10.70;96.30;;;;;;5050420;28;20648;-83
2021/05/17 01:56:24;;;;;;;0.70;0.70;;;10.80;97.10;;;;;;5050988;28;20311;-83
2021/05/17 01:58:54;;;;;;;0.93;0.80;;;10.80;96.50;;;;;;5050086;28;20211;-83
2021/05/17 02:01:22;;;;;;;0.80;0.80;;;10.70;96.90;;;;;;5051067;28;20669;-83
2021/05/17 02:03:49;;;;;;;4.25;0.80;;;10.60;96.60;;;;;;5050056;28;20211;-83
2021/05/17 02:06:18;;;;;;;0.50;0.50;;;10.60;96.70;;;;;;5051145;28;20196;-83
2021/05/17 02:08:48;;;;;;;4.00;0.88;;;10.60;96.90;;;;;;5050209;28;20200;-83
2021/05/17 02:11:18;;;;;;;2.92;0.70;;;10.50;96.60;;;;;;5050764;28;20202;-83
2021/05/17 02:13:51;;;;;;;0.75;0.50;;;10.70;96.40;;;;;;5046984;28;20192;-84
2021/05/17 02:16:22;;;;;;;0.60;0.60;;;10.60;95.70;;;;;;5049823;28;20216;-83
2021/05/17 02:18:50;;;;;;;1.42;0.60;;;10.70;96.10;;;;;;5050064;28;20204;-83
2021/05/17 02:21:20;;;;;;;0.50;0.50;;;10.70;95.80;;;;;;5039773;28;20192;-83
2021/05/17 02:23:49;;;;;;;0.75;0.75;;;10.70;95.70;;;;;;5050425;28;20203;-83
2021/05/17 02:26:17;;;;;;;0.55;0.55;;;10.50;95.30;;;;;;5049931;28;20716;-83
2021/05/17 02:28:44;;;;;;;0.70;0.70;;;10.40;96.20;;;;;;5049350;28;20203;-83
2021/05/17 02:31:11;;;;;;;2.05;0.88;;;10.40;96.60;;;;;;5049897;28;20204;-83
2021/05/17 02:33:38;;;;;;;1.95;0.90;;;10.40;96.30;;;;;;5048896;28;20208;-83
2021/05/17 02:36:07;;;;;;;0.95;0.95;;;10.40;96.20;;;;;;5049468;28;20203;-84
2021/05/17 02:38:34;;;;;;;1.48;0.80;;;10.50;96.30;;;;;;5049485;28;20192;-83
2021/05/17 02:41:04;;;;;;;1.50;0.70;;;10.50;96.00;;;;;;5044759;28;20923;-83
2021/05/17 02:43:33;;;;;;;1.70;0.80;;;10.50;96.00;;;;;;5049549;28;20212;-82
2021/05/17 02:46:01;;;;;;;1.63;0.98;;;10.50;95.90;;;;;;5049674;28;20215;-83
2021/05/17 02:48:29;;;;;;;1.05;0.60;;;10.40;95.80;;;;;;5049639;28;20215;-83
2021/05/17 02:50:56;;;;;;;0.60;0.60;;;10.40;95.80;;;;;;5050101;28;20765;-83
2021/05/17 02:53:37;;;;;;;0.50;0.50;;;10.60;95.80;;;;;;5049646;28;20200;-83
2021/05/17 02:56:08;;;;;;;2.67;0.55;;;10.50;95.80;;;;;;5030056;28;20580;-84
2021/05/17 02:58:38;;;;;;;0.57;0.57;;;10.70;95.30;;;;;;5047668;28;20204;-83
2021/05/17 03:01:08;;;;;;;0.47;0.47;;;10.70;94.90;;;;;;5049824;28;20196;-83
2021/05/17 03:03:37;;;;;;;0.50;0.50;;;10.60;94.90;;;;;;5049833;28;20204;-83
2021/05/17 03:06:05;;;;;;;1.20;0.80;;;10.70;95.00;;;;;;5049857;28;20231;-83
2021/05/17 03:08:42;;;;;;;1.75;0.70;;;10.70;94.90;;;;;;5048857;28;20200;-83
2021/05/17 03:11:12;;;;;;;0.50;0.50;;;10.90;95.10;;;;;;5030489;28;20196;-83
2021/05/17 03:13:42;;;;;;;1.67;0.70;;;11.00;94.90;;;;;;5034209;28;20196;-83
2021/05/17 03:16:09;;;;;;;1.00;0.68;;;11.00;95.00;;;;;;5049688;28;20883;-83
2021/05/17 03:18:37;;;;;;;0.70;0.70;;;11.00;94.90;;;;;;5049492;28;20196;-83
2021/05/17 03:21:05;;;;;;;2.10;0.70;;;10.90;94.90;;;;;;5049419;28;20246;-83
2021/05/17 03:23:33;;;;;;;0.55;0.55;;;11.00;95.60;;;;;;5049587;28;20200;-83
2021/05/17 03:26:00;;;;;;;2.55;0.70;;;11.00;95.00;;;;;;5049680;28;20207;-83
2021/05/17 03:28:26;;;;;;;0.30;0.30;;;10.90;95.00;;;;;;5049917;28;20207;-83
2021/05/17 03:30:54;;;;;;;0.65;0.60;;;10.60;95.40;;;;;;5049295;28;20208;-83
2021/05/17 03:33:20;;;;;;;0.60;0.60;;;10.70;96.00;;;;;;5049190;28;20207;-84
2021/05/17 03:35:47;;;;;;;0.60;0.60;;;10.70;95.70;;;;;;5049878;28;20236;-83
2021/05/17 03:38:13;;;;;;;0.60;0.50;;;10.70;95.80;;;;;;5049568;28;20235;-83
2021/05/17 03:40:39;;;;;;;0.60;0.60;;;10.50;95.60;;;;;;5049623;28;20196;-83
2021/05/17 03:43:06;;;;;;;0.93;0.77;;;10.60;96.80;;;;;;5053305;28;20204;-82
2021/05/17 03:45:32;;;;;;;0.95;0.70;;;10.50;95.90;;;;;;5052978;28;20192;-83
2021/05/17 03:47:59;;;;;;;0.63;0.50;;;10.40;95.70;;;;;;5053247;28;20200;-83
2021/05/17 03:50:26;;;;;;;1.92;0.90;;;10.40;95.90;;;;;;5047521;28;20681;-83
2021/05/17 03:52:52;;;;;;;0.60;0.57;;;10.50;96.00;;;;;;5053417;28;20625;-83
2021/05/17 03:55:19;;;;;;;0.52;0.52;;;10.50;96.30;;;;;;5052758;28;20225;-83
2021/05/17 03:57:45;;;;;;;3.45;0.60;;;10.50;95.90;;;;;;5052880;28;20251;-83
2021/05/17 04:00:13;;;;;;;0.77;0.73;;;10.60;95.80;;;;;;5052612;28;20223;-83
2021/05/17 04:02:41;;;;;;;1.13;0.52;;;10.70;95.90;;;;;;5053105;28;20212;-83
2021/05/17 04:05:23;;;;;;;0.57;0.57;;;10.70;95.70;;;;;;5052682;28;20295;-82
2021/05/17 04:08:07;;;;;;;0.70;0.70;;;10.70;95.30;;;;;;5053020;28;20199;-83
2021/05/17 04:13:21;;;;;;;0.70;0.60;;;10.40;96.20;;;;;;5052593;28;20204;-84
2021/05/17 04:15:49;;;;;;;0.60;0.60;;;10.40;95.80;;;;;;5053195;28;20204;-83
2021/05/17 04:18:17;;;;;;;0.70;0.70;;;10.60;96.30;;;;;;5052781;28;20220;-83
2021/05/17 04:20:44;;;;;;;0.85;0.80;;;10.60;96.10;;;;;;5052078;28;20226;-83
2021/05/17 04:23:11;;;;;;;0.80;0.80;;;10.60;95.90;;;;;;5052190;28;20249;-83
2021/05/17 04:25:38;;;;;;;1.35;0.90;;;10.50;95.70;;;;;;5051585;28;20208;-83
2021/05/17 04:28:05;;;;;;;1.25;0.80;;;10.60;96.00;;;;;;5052863;28;20212;-84
2021/05/17 04:30:31;;;;;;;0.70;0.70;;;10.50;96.10;;;;;;5052209;28;20635;-83
2021/05/17 04:32:58;;;;;;;2.15;1.00;;;10.60;95.60;;;;;;5052757;28;20260;-84
2021/05/17 04:35:24;;;;;;;2.28;0.80;;;10.70;96.10;;;;;;5051915;28;20229;-83
2021/05/17 04:37:51;;;;;;;1.48;0.88;;;10.70;95.80;;;;;;5051918;28;20788;-83
2021/05/17 04:40:18;;;;;;;1.35;0.88;;;10.70;95.60;;;;;;5051856;28;20204;-83
2021/05/17 04:42:44;;;;;;;2.05;0.90;;;10.80;95.70;;;;;;5052112;28;20200;-84
2021/05/17 04:45:12;;;;;;;0.88;0.65;;;10.90;95.40;;;;;;5052161;28;20250;-83
2021/05/17 04:47:38;;;;;;;0.88;0.82;;;11.00;95.40;;;;;;5052133;28;20558;-83
2021/05/17 04:50:06;;;;;;;1.25;0.88;;;11.10;95.20;;;;;;5051662;28;20211;-83
2021/05/17 04:52:32;;;;;;;0.80;0.80;;;11.10;95.10;;;;;;5051974;28;20204;-83
2021/05/17 04:55:00;;;;;;;0.80;0.47;;;11.10;94.70;;;;;;5051976;28;20626;-83
2021/05/17 04:57:26;;;;;;;1.23;0.90;;;11.10;95.10;;;;;;5051974;28;20247;-84
2021/05/17 04:59:53;;;;;;;0.63;0.60;;;11.00;94.10;;;;;;5051534;28;20250;-84
2021/05/17 05:02:19;;;;;;;10.10;0.95;;;10.90;94.40;;;;;;5050159;28;20196;-83
2021/05/17 05:04:46;;;;;;;0.43;0.43;;;10.80;94.30;;;;;;5051597;28;20782;-84
2021/05/17 05:07:14;;;;;;;1.83;0.52;;;10.80;94.40;;;;;;5051026;28;20235;-84
2021/05/17 05:09:42;;;;;;;0.80;0.80;;;10.70;93.40;;;;;;5044591;28;20231;-84
2021/05/17 05:12:10;;;;;;;0.88;0.50;;;10.60;93.10;;;;;;5051558;28;20196;-84
2021/05/17 05:14:37;;;;;;;1.10;1.00;;;10.60;93.30;;;;;;5051876;28;20200;-83
2021/05/17 05:17:03;;;;;;;0.63;0.50;;;10.50;93.30;;;;;;5050173;28;20338;-83
2021/05/17 05:19:30;;;;;;;0.50;0.50;;;10.60;93.40;;;;;;5050889;28;20626;-83
2021/05/17 05:21:57;;;;;;;1.50;0.65;;;10.70;92.80;;;;;;5052368;28;20725;-84
2021/05/17 05:24:24;;;;;;;0.80;0.70;;;10.80;92.30;;;;;;5050786;28;20673;-84
2021/05/17 05:26:59;;;;;;;0.50;0.50;;;10.80;92.00;;;;;;5051498;28;20634;-84
2021/05/17 05:29:34;;;;;;;1.50;0.55;;;10.80;91.60;;;;;;5048095;28;20614;-84
2021/05/17 05:32:03;;;;;;;0.65;0.60;;;10.80;91.80;;;;;;5050454;28;20638;-83
2021/05/17 05:34:30;;;;;;;0.50;0.30;;;10.80;91.40;;;;;;5046427;28;20629;-84
2021/05/17 05:36:58;;;;;;;0.50;0.50;;;10.90;91.50;;;;;;5050466;28;20653;-84
2021/05/17 05:39:25;;;;;;;0.93;0.40;;;11.00;91.60;;;;;;5050788;28;20254;-83
2021/05/17 05:41:51;;;;;;;2.15;0.70;;;10.70;91.20;;;;;;5050870;28;20669;-83
2021/05/17 05:44:18;;;;;;;2.10;0.33;;;10.70;91.70;;;;;;5050211;28;20203;-84
2021/05/17 05:46:46;;;;;;;4.60;0.73;;;10.80;91.70;;;;;;5050376;28;21408;-84
2021/05/17 05:49:14;;;;;;;2.53;0.43;;;10.90;91.40;;;;;;5050404;28;20785;-84
2021/05/17 05:51:40;;;;;;;1.13;0.70;;;11.00;91.50;;;;;;5051235;28;20215;-84
2021/05/17 05:54:07;;;;;;;2.63;0.40;;;11.20;91.40;;;;;;5050564;28;20208;-83
2021/05/17 05:56:34;;;;;;;1.53;0.50;;;11.30;90.90;;;;;;5050556;28;20989;-84
2021/05/17 05:59:00;;;;;;;1.30;0.40;;;11.60;90.90;;;;;;5049903;28;20626;-84
2021/05/17 06:01:27;;;;;;;1.03;0.60;;;11.80;90.70;;;;;;5050785;28;20628;-84
2021/05/17 06:03:54;;;;;;;0.30;0.30;;;12.00;90.20;;;;;;5049639;28;20633;-84
2021/05/17 06:06:21;;;;;;;0.43;0.30;;;12.10;89.80;;;;;;5050967;28;20660;-85
2021/05/17 06:08:48;;;;;;;0.60;0.50;;;12.00;89.60;;;;;;5050062;28;20614;-84
2021/05/17 06:11:15;;;;;;;0.50;0.50;;;12.10;88.90;;;;;;5049470;28;20606;-84
2021/05/17 06:13:43;;;;;;;0.40;0.37;;;12.20;88.60;;;;;;5048176;28;20618;-84
2021/05/17 06:16:11;;;;;;;0.60;0.40;;;12.40;89.00;;;;;;5049936;28;20626;-85
2021/05/17 06:18:38;;;;;;;0.60;0.60;;;12.30;87.70;;;;;;5046783;28;20654;-84
2021/05/17 06:21:07;;;;;;;0.40;0.40;;;12.20;87.40;;;;;;5049342;28;20625;-85
2021/05/17 06:23:34;;;;;;;0.77;0.40;;;12.40;87.30;;;;;;5050623;28;21025;-84
2021/05/17 06:26:03;;;;;;;2.83;0.50;;;12.50;86.50;;;;;;5049741;28;20721;-85
2021/05/17 06:28:30;;;;;;;0.40;0.40;;;12.20;86.40;;;;;;5048673;28;20714;-84
2021/05/17 06:31:00;;;;;;;0.97;0.50;;;12.30;87.30;;;;;;5050259;28;20614;-85
2021/05/17 06:33:27;;;;;;;0.60;0.40;;;12.40;87.10;;;;;;5050245;28;20633;-84
2021/05/17 06:35:55;;;;;;;1.43;0.70;;;12.50;86.90;;;;;;5050665;28;21279;-85
2021/05/17 06:38:23;;;;;;;1.70;0.60;;;12.80;87.60;;;;;;5050371;28;20720;-84
2021/05/17 06:40:50;;;;;;;1.40;0.53;;;12.80;85.60;;;;;;5050110;28;21034;-85
2021/05/17 06:43:17;;;;;;;0.70;0.57;;;12.80;84.50;;;;;;5050122;28;20657;-84
2021/05/17 06:45:44;;;;;;;0.97;0.83;;;12.70;86.10;;;;;;5032692;28;20626;-84
2021/05/17 06:48:11;;;;;;;0.97;0.97;;;12.60;88.20;;;;;;5050148;28;20619;-84
2021/05/17 06:50:38;;;;;;;0.90;0.60;;;12.80;88.20;;;;;;5048966;28;20681;-86
2021/05/17 06:53:05;;;;;;;4.23;1.07;;;12.60;88.10;;;;;;5050406;28;20622;-84
2021/05/17 06:55:38;;;;;;;0.63;0.50;;;12.40;89.60;;;;;;5049471;28;20687;-85
2021/05/17 06:58:14;;;;;;;0.60;0.60;;;12.20;90.00;;;;;;5050061;28;20653;-85
2021/05/17 07:00:42;;;;;;;0.60;0.60;;;12.00;90.00;;;;;;5049701;28;21213;-85
2021/05/17 07:03:11;;;;;;;0.70;0.50;;;12.10;90.40;;;;;;5049479;28;20618;-84
2021/05/17 07:05:39;;;;;;;0.77;0.77;;;12.10;90.30;;;;;;5049851;28;20633;-84
2021/05/17 07:13:38;;;;;;;0.60;0.60;;;11.80;90.30;;;;;;5050024;28;20634;-85
2021/05/17 07:16:04;;;;;;;1.23;0.70;;;11.40;91.10;;;;;;5045915;28;20664;-85
2021/05/17 07:18:31;;;;;;;1.37;0.60;;;11.50;92.00;;;;;;5053395;28;21198;-85
2021/05/17 07:23:45;;;;;;;0.77;0.70;;;11.90;91.50;;;;;;5054821;28;20960;-86
2021/05/17 07:26:24;;;;;;;0.90;0.70;;;11.90;91.60;;;;;;5054058;28;20610;-84
2021/05/17 07:28:51;;;;;;;0.90;0.70;;;11.90;90.80;;;;;;5053224;28;20614;-85
2021/05/17 07:31:18;;;;;;;1.13;0.80;;;11.80;90.70;;;;;;5053786;28;20662;-84
2021/05/17 07:33:45;;;;;;;0.50;0.50;;;11.80;91.20;;;;;;5052420;28;21100;-85
2021/05/17 07:36:13;;;;;;;1.33;0.60;;;11.80;90.80;;;;;;5052057;28;20709;-84
2021/05/17 07:38:41;;;;;;;1.40;0.90;;;11.90;91.00;;;;;;5051327;28;20824;-84
2021/05/17 07:41:08;;;;;;;1.23;0.87;;;12.20;89.80;;;;;;5053600;28;20733;-84
2021/05/17 07:43:35;;;;;;;0.63;0.60;;;12.30;87.50;;;;;;5053084;28;20627;-83
2021/05/17 07:46:02;;;;;;;0.80;0.80;;;12.50;86.90;;;;;;5053721;28;20705;-82
2021/05/17 07:48:29;;;;;;;1.00;0.70;;;12.70;84.90;;;;;;5052529;28;21005;-84
2021/05/17 07:50:55;;;;;;;0.50;0.50;;;12.70;83.80;;;;;;5052203;28;21272;-83
2021/05/17 07:53:22;;;;;;;0.60;0.40;;;12.60;81.90;;;;;;5052648;28;20630;-83
2021/05/17 07:55:51;;;;;;;0.43;0.37;;;12.90;82.30;;;;;;5053462;28;20725;-83
2021/05/17 07:58:18;;;;;;;0.93;0.50;;;12.70;81.00;;;;;;5053096;28;20653;-83
2021/05/17 08:00:45;;;;;;;0.60;0.40;;;13.10;82.30;;;;;;5063679;28;20632;-84
2021/05/17 08:03:12;;;;;;;0.50;0.40;;;13.10;79.60;;;;;;5050524;28;21436;-84
2021/05/17 08:05:38;;;;;;;0.80;0.50;;;13.10;80.50;;;;;;5052597;28;21401;-83
2021/05/17 08:08:05;;;;;;;1.60;0.50;;;13.30;81.10;;;;;;5054472;28;20652;-84
2021/05/17 08:10:34;;;;;;;0.60;0.60;;;13.30;79.30;;;;;;5052163;28;20621;-83
2021/05/17 08:13:00;;;;;;;0.40;0.30;;;13.60;80.10;;;;;;5052555;28;20619;-84
2021/05/17 08:15:27;;;;;;;0.73;0.50;;;14.00;79.30;;;;;;5052997;28;20669;-83
2021/05/17 08:17:55;;;;;;;0.87;0.60;;;13.70;78.00;;;;;;5053810;28;20752;-84
2021/05/17 08:20:24;;;;;;;0.80;0.40;;;13.50;78.70;;;;;;5052497;28;21193;-84
2021/05/17 08:22:54;;;;;;;0.60;0.50;;;13.80;78.70;;;;;;5053215;28;20627;-84
2021/05/17 08:25:21;;;;;;;0.87;0.40;;;14.00;78.80;;;;;;5052147;28;20695;-84
2021/05/17 08:27:47;;;;;;;0.70;0.50;;;14.00;76.40;;;;;;5052538;28;20639;-84
2021/05/17 08:30:15;;;;;;;1.67;0.60;;;14.40;77.10;;;;;;5051865;28;20615;-84
2021/05/17 08:32:41;;;;;;;1.03;0.93;;;14.30;72.80;;;;;;5052596;28;20607;-83
2021/05/17 08:35:09;;;;;;;0.47;0.43;;;14.20;75.90;;;;;;5045954;28;20649;-83
2021/05/17 08:37:36;;;;;;;0.70;0.70;;;14.60;75.70;;;;;;5051991;28;20647;-84
2021/05/17 08:40:04;;;;;;;0.50;0.40;;;14.80;74.10;;;;;;5052140;28;20621;-84
2021/05/17 08:42:32;;;;;;;1.60;0.40;;;14.80;71.80;;;;;;5052478;28;20668;-84
2021/05/17 08:44:59;;;;;;;0.83;0.67;;;14.70;70.10;;;;;;5052142;28;20642;-84
2021/05/17 08:47:25;;;;;;;0.50;0.40;;;14.60;70.10;;;;;;5052154;28;20667;-83
2021/05/17 08:49:52;;;;;;;0.93;0.70;;;14.60;70.70;;;;;;5052170;28;21109;-84
2021/05/17 08:52:20;;;;;;;1.90;1.30;;;14.70;70.60;;;;;;5052886;28;20599;-83
2021/05/17 08:54:46;;;;;;;2.60;0.60;;;14.50;70.30;;;;;;5050870;28;21217;-84
2021/05/17 08:57:15;;;;;;;0.87;0.50;;;14.60;71.60;;;;;;5051328;28;20646;-84
2021/05/17 08:59:43;;;;;;;3.27;0.57;;;14.40;71.50;;;;;;5051227;28;21031;-84
2021/05/17 09:02:10;;;;;;;1.53;0.30;;;14.10;72.80;;;;;;5050614;28;20625;-84
2021/05/17 09:04:36;;;;;;;1.20;0.50;;;14.10;74.20;;;;;;5051054;28;20634;-85
2021/05/17 09:07:04;;;;;;;0.50;0.37;;;14.20;75.30;;;;;;5052638;28;20607;-84
2021/05/17 09:09:32;;;;;;;0.90;0.43;;;14.10;74.30;;;;;;5051849;28;20622;-83
2021/05/17 09:12:01;;;;;;;1.33;0.40;;;14.30;73.10;;;;;;5047836;28;20985;-84
2021/05/17 09:14:30;;;;;;;0.50;0.50;;;14.90;74.80;;;;;;5051786;28;20636;-84
2021/05/17 09:16:58;;;;;;;0.77;0.40;;;15.20;73.70;;;;;;5052797;28;20766;-85
2021/05/17 09:19:27;;;;;;;1.87;0.80;;;15.40;72.50;;;;;;5051996;28;20667;-84
2021/05/17 09:22:09;;;;;;;0.53;0.40;;;15.70;71.40;;;;;;5051285;28;20629;-84
2021/05/17 09:24:47;;;;;;;1.13;0.73;;;15.70;73.10;;;;;;5054322;28;20618;-84
2021/05/17 09:27:18;;;;;;;0.40;0.40;;;15.50;72.30;;;;;;5054476;28;20642;-83
2021/05/17 09:29:47;;;;;;;2.00;0.50;;;15.70;69.70;;;;;;5053263;28;20617;-84
2021/05/17 09:32:21;;;;;;;0.50;0.40;;;15.80;68.20;;;;;;5053687;28;20630;-84
2021/05/17 09:34:58;;;;;;;0.50;0.30;;;15.30;67.50;;;;;;5057369;28;20633;-84
2021/05/17 09:37:28;;;;;;;0.73;0.50;;;15.00;67.50;;;;;;5052437;28;20675;-83
2021/05/17 09:39:55;;;;;;;3.33;0.60;;;15.10;70.20;;;;;;5050169;28;20733;-84
2021/05/17 09:42:24;;;;;;;2.70;0.63;;;15.30;70.70;;;;;;5052031;28;20641;-85
2021/05/17 09:44:53;;;;;;;1.13;0.40;;;15.00;72.20;;;;;;5046789;28;20642;-84
2021/05/17 09:47:20;;;;;;;0.57;0.50;;;14.80;74.00;;;;;;5049819;28;20800;-85
2021/05/17 09:49:49;;;;;;;0.60;0.40;;;15.00;75.50;;;;;;5050510;28;20613;-85
2021/05/17 09:52:19;;;;;;;1.27;0.50;;;15.10;76.10;;;;;;5046650;28;20629;-85
2021/05/17 09:54:58;;;;;;;0.87;0.47;;;15.50;78.00;;;;;;5052403;28;21304;-84
2021/05/17 09:57:30;;;;;;;0.70;0.70;;;16.10;76.80;;;;;;5039685;28;20689;-84
2021/05/17 10:00:01;;;;;;;0.57;0.40;;;16.30;73.30;;;;;;5053165;28;21006;-84
2021/05/17 10:02:33;;;;;;;1.83;0.50;;;15.90;72.30;;;;;;5052772;28;20653;-84
2021/05/17 10:05:19;;;;;;;0.70;0.40;;;15.70;69.30;;;;;;5050036;28;21174;-84
2021/05/17 10:07:47;;;;;;;1.00;0.40;;;15.60;69.60;;;;;;5053001;28;20607;-83
2021/05/17 10:10:14;;;;;;;1.03;0.50;;;15.60;71.10;;;;;;5051967;28;20632;-84
2021/05/17 10:12:43;;;;;;;0.70;0.50;;;15.10;71.80;;;;;;5052718;28;20685;-84
2021/05/17 10:15:12;;;;;;;0.70;0.70;;;15.20;72.00;;;;;;5053347;28;21313;-84
2021/05/17 10:17:39;;;;;;;1.00;0.67;;;15.40;73.60;;;;;;5052610;28;20652;-85
2021/05/17 10:20:08;;;;;;;1.67;0.57;;;15.70;72.10;;;;;;5052101;28;20622;-84
2021/05/17 10:22:36;;;;;;;1.13;0.60;;;15.90;70.70;;;;;;5053441;28;20671;-84
2021/05/17 10:25:06;;;;;;;0.60;0.40;;;15.80;70.50;;;;;;5053947;28;20622;-85
2021/05/17 10:27:40;;;;;;;0.40;0.40;;;15.60;69.10;;;;;;5053455;28;20623;-85
2021/05/17 10:30:09;;;;;;;0.50;0.50;;;15.80;72.10;;;;;;5052659;28;20621;-85
2021/05/17 10:32:43;;;;;;;0.77;0.67;;;15.80;71.60;;;;;;5053557;28;20611;-84
2021/05/17 10:35:12;;;;;;;0.50;0.50;;;15.20;75.50;;;;;;5054126;28;20652;-87
2021/05/17 10:37:39;;;;;;;0.50;0.50;;;14.60;80.20;;;;;;5053591;28;20718;-85
2021/05/17 10:40:07;;;;;;;1.13;0.77;;;14.30;83.60;;;;;;5053464;28;20612;-86
2021/05/17 10:42:51;;;;;;;0.80;0.80;;;14.20;87.30;;;;;;5044876;28;20644;-86
2021/05/17 10:48:29;;;;;;;2.93;0.63;;;14.60;88.50;;;;;;5054322;28;21306;-86
2021/05/17 10:51:16;;;;;;;2.33;0.80;;;14.80;85.60;;;;;;5033639;28;20633;-86
2021/05/17 10:53:50;;;;;;;1.57;0.73;;;15.20;83.20;;;;;;5046159;28;20632;-86
2021/05/17 10:56:46;;;;;;;1.20;0.63;;;15.30;81.30;;;;;;5052982;28;20618;-85
2021/05/17 11:02:00;;;;;;;0.80;0.50;;;15.60;78.80;;;;;;5053396;28;20618;-84
2021/05/17 11:04:35;;;;;;;0.50;0.50;;;16.10;77.00;;;;;;5052875;28;20629;-85
2021/05/17 11:07:13;;;;;;;1.00;0.70;;;16.70;74.80;;;;;;5052903;28;20622;-85
2021/05/17 11:09:49;;;;;;;1.80;0.67;;;16.90;74.80;;;;;;5052463;28;20974;-86
2021/05/17 11:12:53;;;;;;;4.87;0.90;;;17.40;73.80;;;;;;5051657;28;20661;-84
2021/05/17 11:15:22;;;;;;;1.40;0.70;;;17.60;71.60;;;;;;5050751;28;20614;-84
2021/05/17 11:18:12;;;;;;;3.97;0.50;;;16.70;67.10;;;;;;5051247;28;21217;-84
2021/05/17 11:20:47;;;;;;;1.27;0.50;;;16.80;69.90;;;;;;5050933;28;20654;-84
2021/05/17 11:23:15;;;;;;;2.67;0.70;;;16.80;67.80;;;;;;5051261;28;20618;-85
2021/05/17 11:25:50;;;;;;;0.57;0.57;;;16.80;67.80;;;;;;5051161;28;20599;-85
2021/05/17 11:28:19;;;;;;;0.93;0.50;;;16.90;69.80;;;;;;5050611;28;21208;-85
2021/05/17 11:30:47;;;;;;;2.00;0.60;;;16.70;70.20;;;;;;5050797;28;20602;-85
2021/05/17 11:33:16;;;;;;;0.50;0.40;;;16.70;68.10;;;;;;5050654;28;20636;-85
2021/05/17 11:36:20;;;;;;;1.40;0.60;;;16.30;68.40;;;;;;5051607;28;20637;-87
2021/05/17 11:39:05;;;;;;;1.10;0.70;;;16.20;73.50;;;;;;5051324;28;20646;-85
2021/05/17 11:41:35;;;;;;;0.80;0.80;;;15.60;76.00;;;;;;5053077;28;21009;-85
2021/05/17 11:44:02;;;;;;;0.77;0.60;;;15.40;81.00;;;;;;5052190;28;20653;-85
2021/05/17 11:46:32;;;;;;;0.77;0.50;;;15.30;79.30;;;;;;5052479;28;20618;-87
2021/05/17 11:48:58;;;;;;;0.50;0.50;;;15.30;81.90;;;;;;5051943;28;20623;-86
2021/05/17 11:51:25;;;;;;;0.90;0.50;;;15.40;80.30;;;;;;5051477;28;20606;-86
2021/05/17 11:53:53;;;;;;;0.73;0.60;;;15.10;76.60;;;;;;5053413;28;20681;-86
2021/05/17 11:56:20;;;;;;;0.70;0.57;;;15.40;79.80;;;;;;5052482;28;20622;-86
2021/05/17 11:59:05;;;;;;;1.67;0.60;;;15.60;78.70;;;;;;5051523;28;20650;-86
2021/05/17 12:01:34;;;;;;;1.97;0.30;;;16.90;76.90;;;;;;5050872;28;20684;-87
2021/05/17 12:04:16;;;;;;;1.00;0.80;;;17.10;65.20;;;;;;5054091;28;20989;-85
2021/05/17 12:06:45;;;;;;;0.73;0.50;;;17.60;62.80;;;;;;5054636;28;20634;-86
2021/05/17 12:09:11;;;;;;;0.60;0.60;;;17.80;66.60;;;;;;5053031;28;20713;-87
2021/05/17 12:11:49;;;;;;;0.50;0.40;;;17.70;60.40;;;;;;5049607;28;21321;-86
2021/05/17 12:14:17;;;;;;;0.73;0.60;;;16.90;60.20;;;;;;5053432;28;20634;-85
2021/05/17 12:16:45;;;;;;;0.47;0.30;;;16.60;62.50;;;;;;5056040;28;20610;-86
2021/05/17 12:19:15;;;;;;;0.70;0.40;;;16.30;60.90;;;;;;5054244;28;21021;-88
2021/05/17 12:21:42;;;;;;;0.50;0.30;;;17.40;59.20;;;;;;5054303;28;20599;-86
2021/05/17 12:24:24;;;;;;;0.40;0.30;;;18.30;59.50;;;;;;5055038;28;20631;-87
2021/05/17 12:26:52;;;;;;;0.50;0.30;;;18.60;59.00;;;;;;5055999;28;20609;-87
2021/05/17 12:29:20;;;;;;;0.60;0.30;;;19.70;55.40;;;;;;5055289;28;20619;-87
2021/05/17 12:31:47;;;;;;;0.43;0.20;;;22.70;56.60;;;;;;5054724;28;21191;-88
2021/05/17 12:34:15;;;;;;;0.70;0.33;;;26.10;45.40;;;;;;5055157;28;20999;-84
2021/05/17 12:36:42;;;;;;;0.40;0.20;;;28.70;42.90;;;;;;5055121;28;21158;-85
2021/05/17 12:39:16;;;;;;;1.90;0.30;;;29.90;38.80;;;;;;5052764;28;20694;-84
2021/05/17 12:41:43;;;;;;;0.30;0.20;;;30.90;37.50;;;;;;5055814;28;20701;-86
2021/05/17 12:44:34;;;;;;;0.40;0.20;;;28.60;36.10;;;;;;5054672;28;20992;-86
2021/05/17 12:47:12;;;;;;;0.70;0.30;;;29.30;36.10;;;;;;5055242;28;20610;-85
2021/05/17 12:49:50;;;;;;;1.10;0.47;;;29.40;36.20;;;;;;5052974;28;20609;-85
2021/05/17 12:52:29;;;;;;;0.83;0.40;;;27.80;36.40;;;;;;5053399;28;21193;-86
2021/05/17 12:55:20;;;;;;;1.30;0.30;;;26.40;39.30;;;;;;5054312;28;20622;-88
2021/05/17 12:57:52;;;;;;;0.40;0.20;;;24.00;39.80;;;;;;5053655;28;20642;-86
2021/05/17 13:00:42;;;;;;;1.33;0.50;;;22.00;41.20;;;;;;5053506;28;20697;-86
2021/05/17 13:03:13;;;;;;;0.40;0.30;;;21.80;44.40;;;;;;5053433;28;20640;-86
2021/05/17 13:05:54;;;;;;;1.33;0.30;;;22.90;42.80;;;;;;5047452;28;20626;-85
2021/05/17 13:08:22;;;;;;;1.13;0.53;;;23.60;42.10;;;;;;5053884;28;20678;-87
2021/05/17 13:10:59;;;;;;;1.30;0.30;;;24.50;41.20;;;;;;5054750;28;20641;-86
2021/05/17 13:13:50;;;;;;;0.40;0.27;;;26.60;39.40;;;;;;5054651;28;20615;-85
2021/05/17 13:16:22;;;;;;;0.87;0.33;;;28.50;36.30;;;;;;5054429;28;20606;-86
2021/05/17 13:19:06;;;;;;;0.50;0.40;;;29.50;35.80;;;;;;5052550;28;20658;-86